Pagina principală
METAR-TAF:

METAR-TAF

Aeroporturi :

Plovdiv, Bulgaria

Latitudine: 42-08N, longitudine: 024-45E, elevație: 179 m

Observații meteo curente

Raportul a fost făcut în urmă cu 26 de minute, la 06:00 UTC
Vânt 3 kt de la Vest, variabil între Sud și Nord/Nord-vest
Temperatură 14°C
Umiditate 72%
Presiune 1015 hPa
Vizibilitate de 10 km sau mai mult

METAR: LBPD 220600Z AUTO 27003KT 190V340 9999 NCD 14/09 Q1015 NOSIG

Ora: 09:26 (06:26 UTC)

Prognoză

Raportul a fost făcut în urmă cu 1 oră și 26 de minute, la 05:00 UTC
Prognoză valabilă de la 22 ora 06 UTC la 23 ora 06 UTC
Vânt 4 kt din direcții variabile
Vizibilitate de 10 km sau mai mult
nu există nori sub 1.500 m și nici cumulonimbus
Devenind
de la 22 ora 11 UTC la 22 ora 13 UTC
Vânt 10 kt de la Est/Sud-est

TAF: LBPD 220500Z 2206/2306 VRB04KT CAVOK BECMG 2211/2213 11010KT

Observații și prognoze meteo pentru peste 4.000 de aeroporturi (rapoarte METAR și TAF).

Stațiile disponibile sunt reprezentate pe hartă prin puncte galbene și roșii.

Țineți indicatorul mouse-ului pe punctul dorit pentru a vedea denumirea stației.

Apoi, faceți clic pentru a vedea observațiile și prognozele meteorologice.

Pentru a schimba harta: Pentru mărire, faceți clic pe butoanele verzi cu cruce neagră; pentru micșorare, pe butonul verde cu o liniuță; pentru hărți învecinate, pe săgețile verzi.


METAR-TAF: